createdAt,value
2022-10-09T00:01:24.178Z,14.50
2022-10-09T00:03:51.803Z,17.10
2022-10-09T00:06:20.328Z,17.47
2022-10-09T00:08:46.840Z,16.63
2022-10-09T00:11:32.560Z,16.03
2022-10-09T00:13:59.215Z,16.17
2022-10-09T00:16:26.159Z,16.37
2022-10-09T00:18:52.999Z,18.63
2022-10-09T00:21:24.100Z,13.43
2022-10-09T00:23:51.652Z,15.00
2022-10-09T00:26:18.330Z,14.93
2022-10-09T00:28:45.109Z,13.97
2022-10-09T00:31:12.417Z,15.80
2022-10-09T00:33:39.109Z,15.37
2022-10-09T00:36:06.908Z,16.27
2022-10-09T00:38:33.452Z,16.67
2022-10-09T00:41:00.275Z,15.73
2022-10-09T00:43:38.331Z,17.80
2022-10-09T00:46:05.234Z,17.23
2022-10-09T00:48:32.226Z,17.50
2022-10-09T00:50:59.740Z,17.67
2022-10-09T00:53:28.533Z,15.60
2022-10-09T00:55:55.192Z,16.83
2022-10-09T00:58:21.955Z,19.50
2022-10-09T01:00:48.779Z,17.40
2022-10-09T01:03:15.752Z,20.00
2022-10-09T01:06:02.772Z,17.00
2022-10-09T01:08:52.557Z,17.47
2022-10-09T01:11:25.236Z,16.73
2022-10-09T01:13:55.017Z,18.50
2022-10-09T01:16:25.266Z,20.77
2022-10-09T01:19:11.073Z,19.70
2022-10-09T01:21:52.591Z,19.73
2022-10-09T01:24:38.332Z,17.87
2022-10-09T01:27:05.380Z,18.77
2022-10-09T01:29:34.160Z,20.27
2022-10-09T01:32:01.900Z,20.10
2022-10-09T01:34:29.302Z,19.40
2022-10-09T01:36:57.424Z,21.43
2022-10-09T01:39:25.234Z,19.40
2022-10-09T01:41:53.411Z,20.17
2022-10-09T01:44:20.953Z,19.53
2022-10-09T01:46:47.497Z,19.27
2022-10-09T01:49:29.309Z,18.93
2022-10-09T01:52:11.127Z,18.50
2022-10-09T01:54:43.344Z,20.67
2022-10-09T01:57:12.028Z,20.43
2022-10-09T01:59:40.791Z,22.37
2022-10-09T02:02:07.658Z,19.93
2022-10-09T02:04:36.774Z,20.90
2022-10-09T02:07:03.810Z,22.20
2022-10-09T02:09:30.590Z,19.53
2022-10-09T02:11:58.131Z,21.47
2022-10-09T02:14:24.666Z,18.53
2022-10-09T02:16:59.046Z,18.70
2022-10-09T02:19:43.047Z,16.53
2022-10-09T02:22:14.883Z,20.50
2022-10-09T02:24:42.214Z,19.90
2022-10-09T02:27:09.154Z,21.40
2022-10-09T02:29:37.937Z,20.23
2022-10-09T02:32:04.394Z,19.47
2022-10-09T02:34:30.940Z,19.30
2022-10-09T02:36:57.576Z,19.20
2022-10-09T02:39:24.132Z,18.47
2022-10-09T02:41:50.658Z,19.10
2022-10-09T02:44:17.347Z,18.90
2022-10-09T02:46:43.909Z,19.70
2022-10-09T02:49:10.497Z,20.80
2022-10-09T02:51:36.995Z,17.70
2022-10-09T02:54:04.200Z,17.93
2022-10-09T02:56:32.187Z,18.23
2022-10-09T02:59:00.089Z,18.50
2022-10-09T03:01:26.953Z,16.87
2022-10-09T03:03:53.839Z,15.87
2022-10-09T03:06:22.001Z,16.40
2022-10-09T03:08:49.444Z,16.53
2022-10-09T03:11:18.954Z,17.43
2022-10-09T03:13:46.108Z,15.97
2022-10-09T03:16:14.214Z,17.97
2022-10-09T03:18:41.330Z,14.90
2022-10-09T03:21:09.151Z,15.30
2022-10-09T03:23:35.893Z,15.63
2022-10-09T03:26:04.171Z,14.47
2022-10-09T03:28:30.773Z,14.50
2022-10-09T03:30:57.533Z,15.40
2022-10-09T03:33:24.113Z,15.00
2022-10-09T03:35:50.749Z,14.20
2022-10-09T03:38:17.334Z,14.20
2022-10-09T03:40:44.857Z,13.97
2022-10-09T03:43:11.459Z,14.00
2022-10-09T03:45:41.739Z,14.23
2022-10-09T03:48:09.402Z,14.67
2022-10-09T03:50:37.444Z,13.17
2022-10-09T03:53:05.252Z,14.30
2022-10-09T03:55:31.771Z,14.60
2022-10-09T03:57:58.372Z,13.83
2022-10-09T04:00:24.964Z,12.90
2022-10-09T04:02:51.877Z,14.80
2022-10-09T04:05:18.872Z,15.13
2022-10-09T04:07:45.797Z,14.60
2022-10-09T04:10:13.401Z,14.93
2022-10-09T04:12:40.057Z,15.10
2022-10-09T04:15:06.976Z,14.13
2022-10-09T04:17:33.623Z,15.00
2022-10-09T04:20:00.240Z,13.40
2022-10-09T04:22:27.728Z,14.30
2022-10-09T04:24:54.215Z,13.90
2022-10-09T04:27:20.877Z,12.97
2022-10-09T04:29:47.793Z,14.03
2022-10-09T04:32:14.453Z,14.73
2022-10-09T04:34:40.988Z,17.30
2022-10-09T04:37:07.687Z,15.80
2022-10-09T04:39:34.341Z,14.03
2022-10-09T04:42:00.990Z,14.13
2022-10-09T04:44:27.475Z,15.50
2022-10-09T04:46:53.954Z,15.50
2022-10-09T04:49:20.480Z,15.63
2022-10-09T04:51:47.135Z,15.10
2022-10-09T04:54:13.776Z,14.90
2022-10-09T04:56:40.391Z,16.10
2022-10-09T04:59:06.935Z,14.90
2022-10-09T05:01:38.060Z,13.80
2022-10-09T05:04:05.288Z,13.83
2022-10-09T05:06:31.769Z,12.90
2022-10-09T05:08:58.302Z,12.20
2022-10-09T05:11:25.230Z,15.10
2022-10-09T05:13:53.236Z,16.07
2022-10-09T05:16:24.793Z,14.10
2022-10-09T05:18:53.056Z,14.20
2022-10-09T05:21:20.304Z,15.60
2022-10-09T05:23:47.429Z,15.20
2022-10-09T05:26:18.319Z,17.43
2022-10-09T05:28:45.474Z,15.60
2022-10-09T05:31:17.008Z,15.50
2022-10-09T05:33:43.492Z,14.60
2022-10-09T05:36:09.960Z,16.07
2022-10-09T05:38:36.604Z,14.27
2022-10-09T05:41:05.402Z,13.27
2022-10-09T05:43:36.556Z,13.27
2022-10-09T05:46:06.474Z,13.57
2022-10-09T05:48:33.002Z,15.30
2022-10-09T05:51:10.018Z,12.67
2022-10-09T05:53:36.580Z,12.00
2022-10-09T05:56:23.193Z,10.63
2022-10-09T05:58:50.968Z,12.00
2022-10-09T06:01:18.308Z,9.50
2022-10-09T06:03:48.607Z,11.70
2022-10-09T06:06:15.111Z,12.33
2022-10-09T06:08:41.712Z,12.53
2022-10-09T06:11:09.192Z,10.70
2022-10-09T06:13:35.872Z,11.40
2022-10-09T06:16:02.378Z,10.00
2022-10-09T06:18:28.870Z,10.60
2022-10-09T06:20:56.191Z,9.10
2022-10-09T06:23:22.749Z,10.13
2022-10-09T06:25:57.472Z,10.23
2022-10-09T06:28:24.290Z,10.83
2022-10-09T06:30:51.067Z,10.10
2022-10-09T06:33:17.765Z,9.77
2022-10-09T06:35:44.272Z,9.23
2022-10-09T06:38:11.122Z,10.20
2022-10-09T06:40:38.072Z,10.17
2022-10-09T06:43:04.933Z,9.30
2022-10-09T06:45:31.678Z,11.27
2022-10-09T06:47:58.224Z,8.60
2022-10-09T06:50:24.896Z,10.47
2022-10-09T06:52:51.606Z,9.00
2022-10-09T06:55:18.370Z,8.23
2022-10-09T06:57:44.913Z,9.00
2022-10-09T07:00:11.836Z,11.40
2022-10-09T07:02:43.789Z,7.87
2022-10-09T07:05:10.762Z,7.43
2022-10-09T07:07:41.143Z,10.40
2022-10-09T07:10:07.917Z,8.60
2022-10-09T07:12:35.504Z,8.00
2022-10-09T07:15:02.898Z,9.90
2022-10-09T07:17:29.557Z,9.50
2022-10-09T07:19:56.225Z,7.43
2022-10-09T07:22:26.974Z,7.60
2022-10-09T07:24:54.032Z,7.00
2022-10-09T07:27:20.671Z,6.37
2022-10-09T07:29:47.263Z,8.73
2022-10-09T07:32:13.944Z,6.63
2022-10-09T07:34:40.435Z,8.60
2022-10-09T07:37:07.108Z,8.40
2022-10-09T07:39:35.077Z,6.57
2022-10-09T07:42:02.004Z,7.97
2022-10-09T07:44:28.730Z,8.63
2022-10-09T07:46:55.308Z,5.40
2022-10-09T07:49:21.991Z,7.20
2022-10-09T07:51:48.728Z,7.30
2022-10-09T07:54:15.417Z,8.73
2022-10-09T07:56:42.093Z,8.30
2022-10-09T07:59:15.237Z,7.33
2022-10-09T08:01:42.110Z,5.97
2022-10-09T08:04:08.766Z,6.30
2022-10-09T08:06:35.261Z,7.10
2022-10-09T08:09:02.900Z,5.60
2022-10-09T08:11:29.847Z,5.30
2022-10-09T08:13:56.424Z,6.90
2022-10-09T08:16:24.068Z,3.83
2022-10-09T08:18:54.085Z,5.27
2022-10-09T08:21:20.639Z,4.70
2022-10-09T08:23:47.255Z,5.83
2022-10-09T08:26:14.922Z,5.53
2022-10-09T08:28:41.670Z,5.10
2022-10-09T08:31:12.109Z,5.90
2022-10-09T08:33:38.674Z,5.27
2022-10-09T08:36:07.882Z,4.80
2022-10-09T08:38:46.651Z,4.80
2022-10-09T08:41:17.516Z,6.00
2022-10-09T08:43:47.964Z,5.23
2022-10-09T08:46:20.986Z,6.00
2022-10-09T08:48:48.972Z,4.40
2022-10-09T08:51:20.354Z,4.73
2022-10-09T08:53:50.709Z,4.47
2022-10-09T08:56:17.227Z,4.53
2022-10-09T08:58:44.203Z,4.27
2022-10-09T09:01:10.867Z,4.00
2022-10-09T09:03:56.372Z,5.30
2022-10-09T09:06:45.871Z,4.93
2022-10-09T09:09:36.732Z,3.87
2022-10-09T09:12:16.109Z,4.83
2022-10-09T09:15:01.320Z,3.73
2022-10-09T09:17:31.082Z,4.70
2022-10-09T09:20:03.947Z,5.80
2022-10-09T09:22:31.084Z,3.30
2022-10-09T09:24:58.738Z,3.93
2022-10-09T09:27:36.051Z,3.13
2022-10-09T09:30:22.777Z,2.93
2022-10-09T09:33:01.678Z,3.83
2022-10-09T09:35:28.268Z,2.40
2022-10-09T09:37:54.892Z,2.70
2022-10-09T09:40:36.165Z,2.50
2022-10-09T09:43:06.269Z,2.80
2022-10-09T09:45:32.829Z,2.50
2022-10-09T09:48:09.737Z,2.37
2022-10-09T09:50:52.932Z,2.93
2022-10-09T09:53:30.655Z,2.60
2022-10-09T09:55:57.488Z,2.37
2022-10-09T09:58:26.533Z,2.00
2022-10-09T10:00:54.721Z,2.30
2022-10-09T10:03:21.617Z,2.73
2022-10-09T10:05:48.335Z,2.23
2022-10-09T10:08:16.364Z,1.80
2022-10-09T10:10:47.844Z,2.50
2022-10-09T10:13:16.521Z,3.40
2022-10-09T10:15:56.702Z,3.37
2022-10-09T10:18:24.787Z,2.33
2022-10-09T10:21:17.881Z,2.07
2022-10-09T10:23:53.430Z,2.83
2022-10-09T10:26:31.250Z,1.80
2022-10-09T10:29:01.098Z,2.37
2022-10-09T10:31:47.356Z,2.27
2022-10-09T10:34:16.780Z,1.93
2022-10-09T10:36:43.665Z,2.00
2022-10-09T10:39:14.678Z,1.80
2022-10-09T10:41:45.125Z,2.13
2022-10-09T10:44:26.853Z,2.50
2022-10-09T10:46:58.745Z,2.00
2022-10-09T10:49:29.345Z,2.20
2022-10-09T10:51:58.351Z,2.80
2022-10-09T10:54:31.044Z,2.10
2022-10-09T10:57:00.747Z,2.83
2022-10-09T10:59:46.361Z,3.73
2022-10-09T11:02:42.024Z,1.90
2022-10-09T11:05:26.930Z,2.93
2022-10-09T11:08:00.274Z,2.27
2022-10-09T11:10:31.014Z,2.03
2022-10-09T11:13:12.229Z,2.20
2022-10-09T11:15:41.795Z,2.00
2022-10-09T11:18:08.308Z,1.80
2022-10-09T11:20:47.144Z,2.17
2022-10-09T11:23:32.368Z,2.20
2022-10-09T11:26:04.547Z,2.70
2022-10-09T11:28:37.493Z,3.10
2022-10-09T11:31:13.761Z,2.60
2022-10-09T11:33:51.376Z,2.70
2022-10-09T11:36:36.440Z,2.67
2022-10-09T11:39:05.960Z,3.07
2022-10-09T11:41:32.949Z,2.97
2022-10-09T11:44:22.437Z,2.30
2022-10-09T11:47:15.369Z,2.60
2022-10-09T11:49:42.026Z,1.97
2022-10-09T11:52:08.545Z,2.47
2022-10-09T11:54:35.214Z,2.37
2022-10-09T11:57:05.954Z,3.77
2022-10-09T11:59:36.095Z,1.90
2022-10-09T12:02:21.196Z,1.90
2022-10-09T12:04:55.878Z,2.47
2022-10-09T12:07:36.492Z,2.27
2022-10-09T12:10:08.507Z,3.43
2022-10-09T12:12:37.673Z,2.23
2022-10-09T12:15:25.877Z,1.60
2022-10-09T12:17:52.619Z,1.63
2022-10-09T12:20:21.582Z,1.90
2022-10-09T12:23:13.917Z,0.97
2022-10-09T12:25:41.073Z,1.50
2022-10-09T12:28:15.696Z,1.37
2022-10-09T12:30:47.830Z,1.47
2022-10-09T12:33:14.385Z,1.50
2022-10-09T12:35:42.945Z,1.50
2022-10-09T12:38:24.609Z,2.60
2022-10-09T12:40:51.994Z,1.00
2022-10-09T12:43:20.265Z,0.93
2022-10-09T12:45:48.721Z,0.97
2022-10-09T12:48:20.731Z,0.90
2022-10-09T12:50:47.304Z,1.23
2022-10-09T12:53:20.318Z,1.50
2022-10-09T12:55:59.277Z,1.00
2022-10-09T12:58:32.953Z,0.87
2022-10-09T13:01:01.116Z,1.60
2022-10-09T13:03:44.259Z,1.40
2022-10-09T13:06:15.930Z,1.03
2022-10-09T13:08:42.981Z,1.03
2022-10-09T13:11:12.694Z,1.13
2022-10-09T13:13:39.955Z,1.70
2022-10-09T13:16:09.741Z,1.10
2022-10-09T13:18:37.354Z,1.10
2022-10-09T13:21:22.319Z,1.80
2022-10-09T13:23:49.148Z,1.37
2022-10-09T13:26:36.145Z,1.07
2022-10-09T13:29:03.739Z,1.17
2022-10-09T13:31:32.011Z,1.07
2022-10-09T13:33:58.860Z,1.20
2022-10-09T13:36:25.689Z,0.93
2022-10-09T13:38:52.428Z,0.80
2022-10-09T13:41:24.686Z,0.90
2022-10-09T13:43:52.684Z,1.20
2022-10-09T13:46:19.515Z,1.57
2022-10-09T13:48:46.088Z,0.90
2022-10-09T13:51:12.894Z,0.97
2022-10-09T13:53:39.826Z,1.10
2022-10-09T13:56:07.756Z,1.27
2022-10-09T13:58:34.353Z,0.70
2022-10-09T14:01:01.054Z,0.77
2022-10-09T14:03:27.885Z,0.80
2022-10-09T14:06:01.547Z,0.97
2022-10-09T14:08:28.098Z,1.90
2022-10-09T14:10:54.759Z,1.30
2022-10-09T14:13:21.814Z,0.93
2022-10-09T14:15:48.557Z,2.50
2022-10-09T14:18:15.209Z,0.90
2022-10-09T14:20:41.985Z,1.33
2022-10-09T14:23:09.380Z,0.87
2022-10-09T14:25:36.034Z,1.03
2022-10-09T14:28:03.151Z,1.17
2022-10-09T14:30:29.800Z,1.43
2022-10-09T14:32:56.684Z,1.23
2022-10-09T14:35:23.679Z,1.00
2022-10-09T14:37:50.260Z,1.13
2022-10-09T14:40:17.102Z,1.23
2022-10-09T14:42:43.945Z,1.00
2022-10-09T14:45:10.898Z,1.47
2022-10-09T14:47:37.644Z,1.30
2022-10-09T14:50:04.693Z,0.87
2022-10-09T14:52:31.333Z,1.90
2022-10-09T14:54:57.969Z,1.03
2022-10-09T14:57:24.514Z,1.03
2022-10-09T14:59:51.105Z,1.57
2022-10-09T15:02:18.082Z,1.10
2022-10-09T15:04:44.812Z,1.20
2022-10-09T15:07:11.443Z,1.23
2022-10-09T15:09:38.222Z,1.57
2022-10-09T15:12:04.865Z,1.30
2022-10-09T15:14:31.397Z,0.90
2022-10-09T15:16:57.987Z,1.20
2022-10-09T15:19:24.531Z,1.17
2022-10-09T15:21:51.234Z,1.10
2022-10-09T15:24:17.828Z,1.93
2022-10-09T15:26:44.450Z,1.47
2022-10-09T15:29:12.046Z,1.20
2022-10-09T15:31:39.641Z,0.90
2022-10-09T15:34:07.581Z,1.10
2022-10-09T15:36:35.568Z,2.63
2022-10-09T15:39:05.796Z,1.50
2022-10-09T15:41:34.260Z,1.20
2022-10-09T15:44:02.385Z,1.60
2022-10-09T15:46:29.431Z,1.60
2022-10-09T15:48:56.417Z,1.13
2022-10-09T15:51:23.282Z,1.20
2022-10-09T15:53:50.556Z,2.50
2022-10-09T15:56:22.492Z,1.70
2022-10-09T15:58:49.529Z,1.30
2022-10-09T16:01:16.867Z,1.73
2022-10-09T16:03:44.768Z,1.57
2022-10-09T16:06:13.016Z,1.30
2022-10-09T16:08:40.125Z,1.23
2022-10-09T16:13:41.741Z,1.73
2022-10-09T16:16:09.762Z,1.30
2022-10-09T16:18:36.689Z,1.80
2022-10-09T16:21:11.241Z,2.13
2022-10-09T16:23:38.182Z,1.67
2022-10-09T16:26:04.927Z,1.40
2022-10-09T16:28:32.629Z,1.33
2022-10-09T16:30:59.638Z,1.47
2022-10-09T16:33:26.378Z,1.40
2022-10-09T16:35:52.913Z,1.67
2022-10-09T16:38:19.482Z,2.10
2022-10-09T16:41:01.529Z,1.60
2022-10-09T16:43:29.227Z,1.60
2022-10-09T16:45:56.037Z,1.77
2022-10-09T16:48:22.680Z,1.93
2022-10-09T16:50:49.243Z,1.20
2022-10-09T16:53:15.778Z,1.70
2022-10-09T16:55:42.455Z,1.90
2022-10-09T16:58:08.976Z,1.77
2022-10-09T17:00:35.601Z,1.60
2022-10-09T17:03:02.356Z,1.83
2022-10-09T17:05:29.125Z,1.63
2022-10-09T17:07:55.712Z,2.30
2022-10-09T17:10:22.476Z,1.87
2022-10-09T17:12:49.272Z,1.63
2022-10-09T17:15:16.261Z,1.60
2022-10-09T17:17:43.148Z,1.57
2022-10-09T17:20:09.870Z,2.13
2022-10-09T17:22:36.503Z,1.23
2022-10-09T17:25:03.294Z,2.00
2022-10-09T17:27:29.958Z,2.40
2022-10-09T17:29:56.585Z,1.93
2022-10-09T17:32:23.467Z,1.73
2022-10-09T17:34:50.677Z,1.80
2022-10-09T17:37:17.326Z,2.40
2022-10-09T17:39:47.474Z,2.00
2022-10-09T17:42:16.578Z,1.97
2022-10-09T17:44:43.254Z,2.10
2022-10-09T17:47:09.927Z,2.33
2022-10-09T17:49:36.529Z,2.17
2022-10-09T17:52:03.129Z,2.00
2022-10-09T17:54:29.895Z,1.83
2022-10-09T17:56:56.598Z,1.90
2022-10-09T17:59:23.252Z,2.43
2022-10-09T18:01:49.872Z,2.37
2022-10-09T18:04:16.963Z,1.93
2022-10-09T18:06:43.961Z,2.30
2022-10-09T18:09:10.718Z,2.33
2022-10-09T18:11:37.251Z,2.53
2022-10-09T18:14:04.084Z,2.47
2022-10-09T18:16:36.102Z,2.20
2022-10-09T18:19:08.753Z,2.87
2022-10-09T18:21:35.635Z,3.10
2022-10-09T18:24:02.306Z,2.40
2022-10-09T18:26:28.862Z,2.40
2022-10-09T18:28:55.533Z,2.67
2022-10-09T18:31:23.734Z,2.30
2022-10-09T18:33:50.495Z,2.47
2022-10-09T18:36:19.645Z,2.70
2022-10-09T18:38:47.802Z,2.30
2022-10-09T18:41:14.488Z,2.70
2022-10-09T18:43:41.190Z,2.80
2022-10-09T18:46:08.727Z,3.50
2022-10-09T18:48:37.161Z,2.73
2022-10-09T18:51:04.115Z,3.47
2022-10-09T18:53:31.232Z,2.90
2022-10-09T18:55:57.905Z,3.60
2022-10-09T18:58:24.601Z,3.07
2022-10-09T19:00:51.260Z,4.17
2022-10-09T19:03:17.961Z,3.43
2022-10-09T19:05:45.115Z,3.50
2022-10-09T19:08:12.132Z,3.23
2022-10-09T19:10:38.801Z,3.13
2022-10-09T19:13:05.462Z,2.57
2022-10-09T19:15:32.046Z,3.80
2022-10-09T19:17:58.750Z,2.90
2022-10-09T19:20:28.785Z,3.23
2022-10-09T19:22:55.367Z,3.60
2022-10-09T19:29:45.960Z,3.47
2022-10-09T19:32:12.648Z,3.53
2022-10-09T19:34:39.286Z,2.77
2022-10-09T19:39:32.840Z,2.70
2022-10-09T19:41:59.585Z,3.00
2022-10-09T19:44:26.296Z,3.43
2022-10-09T19:46:52.878Z,4.00
2022-10-09T19:49:19.382Z,3.13
2022-10-09T19:51:46.129Z,3.43
2022-10-09T19:54:12.734Z,3.23
2022-10-09T19:56:39.520Z,4.00
2022-10-09T19:59:07.257Z,3.50
2022-10-09T20:01:35.605Z,3.33
2022-10-09T20:04:03.905Z,2.53
2022-10-09T20:06:30.666Z,3.20
2022-10-09T20:08:57.293Z,4.20
2022-10-09T20:11:25.581Z,3.50
2022-10-09T20:13:56.001Z,4.23
2022-10-09T20:16:23.470Z,4.40
2022-10-09T20:18:50.041Z,4.50
2022-10-09T20:21:17.307Z,3.90
2022-10-09T20:23:44.317Z,3.17
2022-10-09T20:26:12.018Z,3.10
2022-10-09T20:28:38.960Z,3.30
2022-10-09T20:31:07.981Z,4.00
2022-10-09T20:33:35.437Z,4.30
2022-10-09T20:36:02.949Z,4.17
2022-10-09T20:38:29.487Z,4.80
2022-10-09T20:41:01.934Z,5.00
2022-10-09T20:43:28.480Z,4.13
2022-10-09T20:45:55.169Z,5.00
2022-10-09T20:48:21.716Z,4.13
2022-10-09T20:50:48.425Z,4.50
2022-10-09T20:53:16.690Z,4.20
2022-10-09T20:55:43.433Z,3.83
2022-10-09T20:58:09.908Z,4.30
2022-10-09T21:00:40.863Z,5.10
2022-10-09T21:03:11.623Z,4.90
2022-10-09T21:05:42.947Z,3.90
2022-10-09T21:08:09.625Z,4.20
2022-10-09T21:10:42.119Z,3.93
2022-10-09T21:13:08.881Z,3.80
2022-10-09T21:15:36.849Z,4.73
2022-10-09T21:18:04.864Z,5.90
2022-10-09T21:20:31.350Z,4.80
2022-10-09T21:22:57.853Z,4.43
2022-10-09T21:25:24.456Z,4.50
2022-10-09T21:27:50.948Z,6.17
2022-10-09T21:30:17.526Z,5.40
2022-10-09T21:32:44.288Z,4.03
2022-10-09T21:35:10.808Z,5.20
2022-10-09T21:37:37.660Z,4.50
2022-10-09T21:40:04.334Z,4.83
2022-10-09T21:42:30.862Z,4.50
2022-10-09T21:44:57.412Z,5.10
2022-10-09T21:47:23.910Z,4.13
2022-10-09T21:49:50.487Z,4.03
2022-10-09T21:52:17.091Z,4.70
2022-10-09T21:54:43.630Z,5.30
2022-10-09T21:57:10.203Z,4.10
2022-10-09T21:59:36.812Z,4.40
2022-10-09T22:02:04.034Z,4.47
2022-10-09T22:04:30.554Z,5.23
2022-10-09T22:06:57.095Z,5.43
2022-10-09T22:09:23.615Z,5.43
2022-10-09T22:11:50.286Z,5.07
2022-10-09T22:14:17.035Z,5.50
2022-10-09T22:16:43.656Z,4.90
2022-10-09T22:19:10.203Z,5.97
2022-10-09T22:21:36.865Z,5.77
2022-10-09T22:24:03.461Z,5.40
2022-10-09T22:26:30.126Z,4.10
2022-10-09T22:28:56.620Z,4.30
2022-10-09T22:31:24.217Z,4.27
2022-10-09T22:33:51.695Z,5.43
2022-10-09T22:36:19.211Z,4.87
2022-10-09T22:38:45.748Z,4.57
2022-10-09T22:41:13.790Z,4.37
2022-10-09T22:43:40.839Z,4.00
2022-10-09T22:46:08.666Z,5.10
2022-10-09T22:48:35.383Z,4.83
2022-10-09T22:51:03.028Z,5.53
2022-10-09T22:53:29.571Z,4.73
2022-10-09T22:55:56.161Z,4.53
2022-10-09T22:58:22.694Z,5.93
2022-10-09T23:00:49.261Z,5.07
2022-10-09T23:03:15.915Z,4.87
2022-10-09T23:05:42.473Z,5.27
2022-10-09T23:08:09.032Z,3.80
2022-10-09T23:10:39.609Z,4.70
2022-10-09T23:13:06.333Z,5.57
2022-10-09T23:15:36.710Z,4.37
2022-10-09T23:18:04.120Z,5.00
2022-10-09T23:20:31.050Z,5.40
2022-10-09T23:22:57.609Z,5.40
2022-10-09T23:25:24.274Z,4.47
2022-10-09T23:27:50.913Z,4.60
2022-10-09T23:30:17.676Z,4.70
2022-10-09T23:32:44.150Z,4.37
2022-10-09T23:35:10.669Z,4.30
2022-10-09T23:37:37.172Z,3.80
2022-10-09T23:40:03.758Z,3.53
2022-10-09T23:42:30.252Z,4.37
2022-10-09T23:44:56.722Z,4.37
2022-10-09T23:47:23.444Z,3.83
2022-10-09T23:49:50.100Z,3.60
2022-10-09T23:52:16.616Z,3.80
2022-10-09T23:54:43.340Z,4.00
2022-10-09T23:57:09.913Z,4.67
2022-10-09T23:59:36.382Z,3.80
